NBE weather

Enfidha - Hammamet International Airport
Enfidha, Sousse Governorate, Tunisia

Public forecast

Using degrees Celsius for public forecast. Weather courtesy of forecast.io.

Closest aviation weather report (METAR) to Enfidha - Hammamet International Airport

Closest report is Monastir Habib Bourguiba International Airport, 24.5 nm (45.4 km) SE. Retrieved 2019/12/07 21:30 UTC (0 seconds ago):

DTMB 072130Z 00000KT 8000 NSC 15/15 Q1022

Closest aviation forecast (TAF) to Enfidha - Hammamet International Airport

Closest forecast is Monastir Habib Bourguiba International Airport, 24.5 nm (45.4 km) SE. Retrieved 2019/12/07 18:09 UTC (3 hours ago):

TAF DTMB 071700Z 0718/0818 11004KT 8000 NSC PROB30 0804/0808 3000 BR TEMPO 0810/0818 4000 SHRA FEW023TCU